sensor_id;sensor_type;location;lat;lon;timestamp;temperature;humidity
24085;DHT22;12268;52.110;5.548;2022-10-16T09:41:24;24.10;99.90
24085;DHT22;12268;52.110;5.548;2022-10-16T09:43:54;23.40;99.90
24085;DHT22;12268;52.110;5.548;2022-10-16T09:48:49;22.90;99.90
24085;DHT22;12268;52.110;5.548;2022-10-16T09:51:19;23.70;99.90
24085;DHT22;12268;52.110;5.548;2022-10-16T09:53:45;24.70;99.90
24085;DHT22;12268;52.110;5.548;2022-10-16T09:56:12;25.30;99.90
24085;DHT22;12268;52.110;5.548;2022-10-16T09:58:52;26.20;99.90
24085;DHT22;12268;52.110;5.548;2022-10-16T10:01:18;26.00;99.90
24085;DHT22;12268;52.110;5.548;2022-10-16T10:03:44;26.30;99.90
24085;DHT22;12268;52.110;5.548;2022-10-16T10:06:26;25.90;99.90
24085;DHT22;12268;52.110;5.548;2022-10-16T10:08:56;24.70;99.90
24085;DHT22;12268;52.110;5.548;2022-10-16T10:11:40;25.00;99.90
24085;DHT22;12268;52.110;5.548;2022-10-16T10:14:14;24.70;99.90
24085;DHT22;12268;52.110;5.548;2022-10-16T10:16:40;25.30;99.90
24085;DHT22;12268;52.110;5.548;2022-10-16T10:19:09;24.70;99.90
24085;DHT22;12268;52.110;5.548;2022-10-16T10:21:38;24.70;99.90
24085;DHT22;12268;52.110;5.548;2022-10-16T10:24:03;24.40;99.90
24085;DHT22;12268;52.110;5.548;2022-10-16T10:26:30;24.00;99.90
24085;DHT22;12268;52.110;5.548;2022-10-16T10:29:00;24.50;99.90
24085;DHT22;12268;52.110;5.548;2022-10-16T10:32:12;25.30;99.90
24085;DHT22;12268;52.110;5.548;2022-10-16T10:37:04;23.90;99.90
24085;DHT22;12268;52.110;5.548;2022-10-16T10:39:36;24.70;99.90
24085;DHT22;12268;52.110;5.548;2022-10-16T10:49:41;24.70;99.90
24085;DHT22;12268;52.110;5.548;2022-10-16T10:54:49;25.10;99.90
24085;DHT22;12268;52.110;5.548;2022-10-16T11:05:27;25.20;99.90
24085;DHT22;12268;52.110;5.548;2022-10-16T11:08:13;25.00;99.90
24085;DHT22;12268;52.110;5.548;2022-10-16T11:13:19;25.70;99.90
24085;DHT22;12268;52.110;5.548;2022-10-16T11:15:46;26.30;99.90
24085;DHT22;12268;52.110;5.548;2022-10-16T11:20:40;28.50;99.90
24085;DHT22;12268;52.110;5.548;2022-10-16T11:23:09;28.80;99.50
24085;DHT22;12268;52.110;5.548;2022-10-16T11:25:37;29.60;98.50
24085;DHT22;12268;52.110;5.548;2022-10-16T11:28:18;28.50;97.90
24085;DHT22;12268;52.110;5.548;2022-10-16T11:30:53;27.70;99.90
24085;DHT22;12268;52.110;5.548;2022-10-16T11:33:22;28.00;99.10
24085;DHT22;12268;52.110;5.548;2022-10-16T11:40:52;28.10;97.40
24085;DHT22;12268;52.110;5.548;2022-10-16T11:43:24;28.20;97.40
24085;DHT22;12268;52.110;5.548;2022-10-16T11:45:51;27.40;98.50
24085;DHT22;12268;52.110;5.548;2022-10-16T11:48:30;27.90;96.70
24085;DHT22;12268;52.110;5.548;2022-10-16T11:51:00;27.80;98.10
24085;DHT22;12268;52.110;5.548;2022-10-16T11:53:35;28.70;96.10
24085;DHT22;12268;52.110;5.548;2022-10-16T11:56:04;30.30;92.80
24085;DHT22;12268;52.110;5.548;2022-10-16T12:03:47;30.50;91.10
24085;DHT22;12268;52.110;5.548;2022-10-16T12:08:43;28.30;91.60
24085;DHT22;12268;52.110;5.548;2022-10-16T12:11:20;27.60;93.30
24085;DHT22;12268;52.110;5.548;2022-10-16T12:13:47;27.50;94.40
24085;DHT22;12268;52.110;5.548;2022-10-16T12:18:43;27.90;95.90
24085;DHT22;12268;52.110;5.548;2022-10-16T12:21:09;27.50;95.00
24085;DHT22;12268;52.110;5.548;2022-10-16T12:23:54;27.10;93.80
24085;DHT22;12268;52.110;5.548;2022-10-16T12:26:38;25.80;96.00
24085;DHT22;12268;52.110;5.548;2022-10-16T12:31:43;26.40;94.90
24085;DHT22;12268;52.110;5.548;2022-10-16T12:34:20;27.00;93.70
24085;DHT22;12268;52.110;5.548;2022-10-16T12:36:47;26.30;94.50
24085;DHT22;12268;52.110;5.548;2022-10-16T12:39:22;25.30;94.50
24085;DHT22;12268;52.110;5.548;2022-10-16T12:41:59;24.60;94.90
24085;DHT22;12268;52.110;5.548;2022-10-16T12:44:25;24.10;96.30
24085;DHT22;12268;52.110;5.548;2022-10-16T12:46:56;23.70;97.40
24085;DHT22;12268;52.110;5.548;2022-10-16T12:49:28;23.10;97.20
24085;DHT22;12268;52.110;5.548;2022-10-16T12:51:54;22.80;98.30
24085;DHT22;12268;52.110;5.548;2022-10-16T12:54:22;22.80;99.90
24085;DHT22;12268;52.110;5.548;2022-10-16T13:10:10;22.30;99.90
24085;DHT22;12268;52.110;5.548;2022-10-16T13:15:37;22.20;99.90
24085;DHT22;12268;52.110;5.548;2022-10-16T13:23:13;22.90;99.90
24085;DHT22;12268;52.110;5.548;2022-10-16T13:25:43;22.80;99.90
24085;DHT22;12268;52.110;5.548;2022-10-16T13:28:11;22.80;99.90
24085;DHT22;12268;52.110;5.548;2022-10-16T13:30:41;22.90;99.90
24085;DHT22;12268;52.110;5.548;2022-10-16T13:33:13;22.70;99.90
24085;DHT22;12268;52.110;5.548;2022-10-16T13:35:46;22.40;99.90
24085;DHT22;12268;52.110;5.548;2022-10-16T13:38:16;22.40;99.90
24085;DHT22;12268;52.110;5.548;2022-10-16T13:43:13;22.40;99.90
24085;DHT22;12268;52.110;5.548;2022-10-16T13:45:39;22.10;99.90
24085;DHT22;12268;52.110;5.548;2022-10-16T13:48:05;22.10;99.90
24085;DHT22;12268;52.110;5.548;2022-10-16T13:50:30;22.10;99.90
24085;DHT22;12268;52.110;5.548;2022-10-16T13:53:05;22.00;99.90
24085;DHT22;12268;52.110;5.548;2022-10-16T13:55:30;22.10;99.90
24085;DHT22;12268;52.110;5.548;2022-10-16T13:58:04;21.90;99.90
24085;DHT22;12268;52.110;5.548;2022-10-16T14:00:30;22.00;99.90
24085;DHT22;12268;52.110;5.548;2022-10-16T14:02:58;22.00;99.90
24085;DHT22;12268;52.110;5.548;2022-10-16T14:05:26;21.80;99.90
24085;DHT22;12268;52.110;5.548;2022-10-16T14:07:51;21.80;99.90
24085;DHT22;12268;52.110;5.548;2022-10-16T14:10:19;21.90;99.90
24085;DHT22;12268;52.110;5.548;2022-10-16T14:12:45;21.90;99.90
24085;DHT22;12268;52.110;5.548;2022-10-16T14:15:18;21.80;99.90
24085;DHT22;12268;52.110;5.548;2022-10-16T14:17:48;21.90;99.90
24085;DHT22;12268;52.110;5.548;2022-10-16T14:20:15;22.20;99.90
24085;DHT22;12268;52.110;5.548;2022-10-16T14:22:42;22.30;99.90
24085;DHT22;12268;52.110;5.548;2022-10-16T14:27:55;22.40;99.90
24085;DHT22;12268;52.110;5.548;2022-10-16T14:30:21;22.30;99.90
24085;DHT22;12268;52.110;5.548;2022-10-16T14:32:57;22.20;99.90
24085;DHT22;12268;52.110;5.548;2022-10-16T14:37:51;22.50;99.90
24085;DHT22;12268;52.110;5.548;2022-10-16T14:40:16;22.60;99.90
24085;DHT22;12268;52.110;5.548;2022-10-16T14:42:43;22.90;99.90
24085;DHT22;12268;52.110;5.548;2022-10-16T14:45:09;22.90;99.90
24085;DHT22;12268;52.110;5.548;2022-10-16T14:47:35;23.00;99.90
24085;DHT22;12268;52.110;5.548;2022-10-16T14:50:02;22.90;99.90
24085;DHT22;12268;52.110;5.548;2022-10-16T14:52:27;22.90;99.90
24085;DHT22;12268;52.110;5.548;2022-10-16T14:54:53;23.10;99.90
24085;DHT22;12268;52.110;5.548;2022-10-16T14:57:22;22.90;99.90
24085;DHT22;12268;52.110;5.548;2022-10-16T14:59:48;22.80;99.90
24085;DHT22;12268;52.110;5.548;2022-10-16T15:02:32;23.00;99.90
24085;DHT22;12268;52.110;5.548;2022-10-16T15:04:59;22.90;99.90
24085;DHT22;12268;52.110;5.548;2022-10-16T15:07:27;23.00;99.90
24085;DHT22;12268;52.110;5.548;2022-10-16T15:09:52;23.00;99.90
24085;DHT22;12268;52.110;5.548;2022-10-16T15:12:18;23.10;99.90
24085;DHT22;12268;52.110;5.548;2022-10-16T15:14:44;23.10;99.90
24085;DHT22;12268;52.110;5.548;2022-10-16T15:17:10;23.00;99.90
24085;DHT22;12268;52.110;5.548;2022-10-16T15:19:35;23.00;99.90
24085;DHT22;12268;52.110;5.548;2022-10-16T15:22:01;23.10;99.90
24085;DHT22;12268;52.110;5.548;2022-10-16T15:24:26;23.10;99.90
24085;DHT22;12268;52.110;5.548;2022-10-16T15:26:52;23.10;99.90
24085;DHT22;12268;52.110;5.548;2022-10-16T15:29:17;23.00;99.90
24085;DHT22;12268;52.110;5.548;2022-10-16T15:31:43;22.90;99.90
24085;DHT22;12268;52.110;5.548;2022-10-16T15:34:09;22.80;99.90
24085;DHT22;12268;52.110;5.548;2022-10-16T15:36:35;22.70;99.90
24085;DHT22;12268;52.110;5.548;2022-10-16T15:39:05;22.60;99.90
24085;DHT22;12268;52.110;5.548;2022-10-16T15:41:30;22.50;99.90
24085;DHT22;12268;52.110;5.548;2022-10-16T15:43:56;22.50;99.90
24085;DHT22;12268;52.110;5.548;2022-10-16T15:46:22;22.40;99.90
24085;DHT22;12268;52.110;5.548;2022-10-16T15:48:48;22.20;99.90
24085;DHT22;12268;52.110;5.548;2022-10-16T15:51:14;22.00;99.90
24085;DHT22;12268;52.110;5.548;2022-10-16T15:53:40;21.80;99.90
24085;DHT22;12268;52.110;5.548;2022-10-16T15:56:05;21.60;99.90
24085;DHT22;12268;52.110;5.548;2022-10-16T15:58:31;21.50;99.90
24085;DHT22;12268;52.110;5.548;2022-10-16T16:00:57;21.40;99.90
24085;DHT22;12268;52.110;5.548;2022-10-16T16:03:23;21.30;99.90
24085;DHT22;12268;52.110;5.548;2022-10-16T16:05:48;21.30;99.90
24085;DHT22;12268;52.110;5.548;2022-10-16T16:08:14;21.30;99.90
24085;DHT22;12268;52.110;5.548;2022-10-16T16:10:39;21.20;99.90
24085;DHT22;12268;52.110;5.548;2022-10-16T16:13:05;21.10;99.90
24085;DHT22;12268;52.110;5.548;2022-10-16T16:15:30;21.00;99.90
24085;DHT22;12268;52.110;5.548;2022-10-16T16:17:56;21.00;99.90
24085;DHT22;12268;52.110;5.548;2022-10-16T16:20:21;20.90;99.90
24085;DHT22;12268;52.110;5.548;2022-10-16T16:22:47;20.90;99.90
24085;DHT22;12268;52.110;5.548;2022-10-16T16:25:12;20.90;99.90
24085;DHT22;12268;52.110;5.548;2022-10-16T16:27:38;20.80;99.90
24085;DHT22;12268;52.110;5.548;2022-10-16T16:30:04;20.70;99.90
24085;DHT22;12268;52.110;5.548;2022-10-16T16:32:30;20.70;99.90
24085;DHT22;12268;52.110;5.548;2022-10-16T16:34:55;20.60;99.90
24085;DHT22;12268;52.110;5.548;2022-10-16T16:37:21;20.50;99.90
24085;DHT22;12268;52.110;5.548;2022-10-16T16:39:46;20.40;99.90
24085;DHT22;12268;52.110;5.548;2022-10-16T16:42:11;20.30;99.90
24085;DHT22;12268;52.110;5.548;2022-10-16T16:44:37;20.30;99.90
24085;DHT22;12268;52.110;5.548;2022-10-16T16:47:03;20.30;99.90
24085;DHT22;12268;52.110;5.548;2022-10-16T16:49:29;20.30;99.90
24085;DHT22;12268;52.110;5.548;2022-10-16T16:51:54;20.20;99.90
24085;DHT22;12268;52.110;5.548;2022-10-16T16:54:20;20.30;99.90
24085;DHT22;12268;52.110;5.548;2022-10-16T16:56:45;20.20;99.90
24085;DHT22;12268;52.110;5.548;2022-10-16T16:59:15;20.00;99.90
24085;DHT22;12268;52.110;5.548;2022-10-16T17:01:41;20.00;99.90
24085;DHT22;12268;52.110;5.548;2022-10-16T17:04:06;19.90;99.90
24085;DHT22;12268;52.110;5.548;2022-10-16T17:06:32;19.80;99.90
24085;DHT22;12268;52.110;5.548;2022-10-16T17:08:57;19.70;99.90
24085;DHT22;12268;52.110;5.548;2022-10-16T17:11:24;19.70;99.90
24085;DHT22;12268;52.110;5.548;2022-10-16T17:13:50;19.70;99.90
24085;DHT22;12268;52.110;5.548;2022-10-16T17:16:16;19.70;99.90
24085;DHT22;12268;52.110;5.548;2022-10-16T17:18:41;19.70;99.90
24085;DHT22;12268;52.110;5.548;2022-10-16T17:21:07;19.70;99.90
24085;DHT22;12268;52.110;5.548;2022-10-16T17:23:34;19.60;99.90
24085;DHT22;12268;52.110;5.548;2022-10-16T17:26:04;19.40;99.90
24085;DHT22;12268;52.110;5.548;2022-10-16T17:28:30;19.40;99.90
24085;DHT22;12268;52.110;5.548;2022-10-16T17:30:55;19.40;99.90
24085;DHT22;12268;52.110;5.548;2022-10-16T17:33:21;19.20;99.90
24085;DHT22;12268;52.110;5.548;2022-10-16T17:35:46;19.10;99.90
24085;DHT22;12268;52.110;5.548;2022-10-16T17:38:13;19.00;99.90
24085;DHT22;12268;52.110;5.548;2022-10-16T17:40:39;19.10;99.90
24085;DHT22;12268;52.110;5.548;2022-10-16T17:43:05;18.80;99.90
24085;DHT22;12268;52.110;5.548;2022-10-16T17:45:31;18.90;99.90
24085;DHT22;12268;52.110;5.548;2022-10-16T17:48:00;19.10;99.90
24085;DHT22;12268;52.110;5.548;2022-10-16T17:50:25;19.40;99.90
24085;DHT22;12268;52.110;5.548;2022-10-16T17:52:51;19.50;99.90
24085;DHT22;12268;52.110;5.548;2022-10-16T17:55:16;19.60;99.90
24085;DHT22;12268;52.110;5.548;2022-10-16T17:57:42;19.60;99.90
24085;DHT22;12268;52.110;5.548;2022-10-16T18:00:07;19.60;99.90
24085;DHT22;12268;52.110;5.548;2022-10-16T18:02:33;19.60;99.90
24085;DHT22;12268;52.110;5.548;2022-10-16T18:04:59;19.50;99.90
24085;DHT22;12268;52.110;5.548;2022-10-16T18:07:24;19.40;99.90
24085;DHT22;12268;52.110;5.548;2022-10-16T18:09:50;19.30;99.90
24085;DHT22;12268;52.110;5.548;2022-10-16T18:12:15;19.30;99.90
24085;DHT22;12268;52.110;5.548;2022-10-16T18:14:41;19.50;99.90
24085;DHT22;12268;52.110;5.548;2022-10-16T18:17:06;19.40;99.90
24085;DHT22;12268;52.110;5.548;2022-10-16T18:19:32;19.40;99.90
24085;DHT22;12268;52.110;5.548;2022-10-16T18:21:57;19.30;99.90
24085;DHT22;12268;52.110;5.548;2022-10-16T18:24:23;19.20;99.90
24085;DHT22;12268;52.110;5.548;2022-10-16T18:26:50;19.00;99.90
24085;DHT22;12268;52.110;5.548;2022-10-16T18:29:16;19.10;99.90
24085;DHT22;12268;52.110;5.548;2022-10-16T18:31:41;19.20;99.90
24085;DHT22;12268;52.110;5.548;2022-10-16T18:34:08;19.10;99.90
24085;DHT22;12268;52.110;5.548;2022-10-16T18:36:34;19.20;99.90
24085;DHT22;12268;52.110;5.548;2022-10-16T18:39:01;19.10;99.90
24085;DHT22;12268;52.110;5.548;2022-10-16T18:41:27;19.20;99.90
24085;DHT22;12268;52.110;5.548;2022-10-16T18:43:53;19.20;99.90
24085;DHT22;12268;52.110;5.548;2022-10-16T18:46:20;19.20;99.90
24085;DHT22;12268;52.110;5.548;2022-10-16T18:48:46;19.20;99.90
24085;DHT22;12268;52.110;5.548;2022-10-16T18:51:12;19.10;99.90
24085;DHT22;12268;52.110;5.548;2022-10-16T18:53:38;19.10;99.90
24085;DHT22;12268;52.110;5.548;2022-10-16T18:56:05;19.10;99.90
24085;DHT22;12268;52.110;5.548;2022-10-16T18:58:32;19.10;99.90
24085;DHT22;12268;52.110;5.548;2022-10-16T19:01:01;19.10;99.90
24085;DHT22;12268;52.110;5.548;2022-10-16T19:03:26;19.10;99.90
24085;DHT22;12268;52.110;5.548;2022-10-16T19:05:52;19.20;99.90
24085;DHT22;12268;52.110;5.548;2022-10-16T19:08:17;19.20;99.90
24085;DHT22;12268;52.110;5.548;2022-10-16T19:10:43;19.20;99.90
24085;DHT22;12268;52.110;5.548;2022-10-16T19:13:09;19.20;99.90
24085;DHT22;12268;52.110;5.548;2022-10-16T19:15:39;19.30;99.90
24085;DHT22;12268;52.110;5.548;2022-10-16T19:18:04;19.30;99.90
24085;DHT22;12268;52.110;5.548;2022-10-16T19:20:31;19.30;99.90
24085;DHT22;12268;52.110;5.548;2022-10-16T19:22:56;19.20;99.90
24085;DHT22;12268;52.110;5.548;2022-10-16T19:25:23;19.30;99.90
24085;DHT22;12268;52.110;5.548;2022-10-16T19:27:50;19.40;99.90
24085;DHT22;12268;52.110;5.548;2022-10-16T19:30:16;19.40;99.90
24085;DHT22;12268;52.110;5.548;2022-10-16T19:32:42;19.40;99.90
24085;DHT22;12268;52.110;5.548;2022-10-16T19:35:09;19.20;99.90
24085;DHT22;12268;52.110;5.548;2022-10-16T19:37:34;19.20;99.90
24085;DHT22;12268;52.110;5.548;2022-10-16T19:40:00;19.30;99.90
24085;DHT22;12268;52.110;5.548;2022-10-16T19:42:25;19.50;99.90
24085;DHT22;12268;52.110;5.548;2022-10-16T19:44:51;19.50;99.90
24085;DHT22;12268;52.110;5.548;2022-10-16T19:47:16;19.30;99.90
24085;DHT22;12268;52.110;5.548;2022-10-16T19:49:42;19.20;99.90
24085;DHT22;12268;52.110;5.548;2022-10-16T19:52:07;19.30;99.90
24085;DHT22;12268;52.110;5.548;2022-10-16T19:54:33;19.30;99.90
24085;DHT22;12268;52.110;5.548;2022-10-16T19:57:00;19.10;99.90
24085;DHT22;12268;52.110;5.548;2022-10-16T19:59:26;19.00;99.90
24085;DHT22;12268;52.110;5.548;2022-10-16T20:01:51;19.00;99.90
24085;DHT22;12268;52.110;5.548;2022-10-16T20:04:17;19.00;99.90
24085;DHT22;12268;52.110;5.548;2022-10-16T20:06:42;19.10;99.90
24085;DHT22;12268;52.110;5.548;2022-10-16T20:09:08;19.00;99.90
24085;DHT22;12268;52.110;5.548;2022-10-16T20:11:33;19.00;99.90
24085;DHT22;12268;52.110;5.548;2022-10-16T20:14:00;19.10;99.90
24085;DHT22;12268;52.110;5.548;2022-10-16T20:16:26;19.10;99.90
24085;DHT22;12268;52.110;5.548;2022-10-16T20:18:52;19.00;99.90
24085;DHT22;12268;52.110;5.548;2022-10-16T20:21:19;19.20;99.90
24085;DHT22;12268;52.110;5.548;2022-10-16T20:23:45;19.20;99.90
24085;DHT22;12268;52.110;5.548;2022-10-16T20:26:13;19.40;99.90
24085;DHT22;12268;52.110;5.548;2022-10-16T20:28:39;19.20;99.90
24085;DHT22;12268;52.110;5.548;2022-10-16T20:31:06;19.00;99.90
24085;DHT22;12268;52.110;5.548;2022-10-16T20:33:31;19.00;99.90
24085;DHT22;12268;52.110;5.548;2022-10-16T20:35:57;18.90;99.90
24085;DHT22;12268;52.110;5.548;2022-10-16T20:38:22;18.90;99.90
24085;DHT22;12268;52.110;5.548;2022-10-16T20:40:50;18.80;99.90
24085;DHT22;12268;52.110;5.548;2022-10-16T20:43:16;19.00;99.90
24085;DHT22;12268;52.110;5.548;2022-10-16T20:45:42;19.00;99.90
24085;DHT22;12268;52.110;5.548;2022-10-16T20:48:09;18.90;99.90
24085;DHT22;12268;52.110;5.548;2022-10-16T20:50:38;18.90;99.90
24085;DHT22;12268;52.110;5.548;2022-10-16T20:53:04;19.00;99.90
24085;DHT22;12268;52.110;5.548;2022-10-16T20:55:29;19.00;99.90
24085;DHT22;12268;52.110;5.548;2022-10-16T20:57:55;19.10;99.90
24085;DHT22;12268;52.110;5.548;2022-10-16T21:00:21;19.00;99.90
24085;DHT22;12268;52.110;5.548;2022-10-16T21:02:50;19.00;99.90
24085;DHT22;12268;52.110;5.548;2022-10-16T21:05:16;19.00;99.90
24085;DHT22;12268;52.110;5.548;2022-10-16T21:07:41;19.10;99.90
24085;DHT22;12268;52.110;5.548;2022-10-16T21:10:07;19.20;99.90
24085;DHT22;12268;52.110;5.548;2022-10-16T21:12:32;19.20;99.90
24085;DHT22;12268;52.110;5.548;2022-10-16T21:14:58;19.20;99.90
24085;DHT22;12268;52.110;5.548;2022-10-16T21:17:23;19.20;99.90
24085;DHT22;12268;52.110;5.548;2022-10-16T21:19:49;19.20;99.90
24085;DHT22;12268;52.110;5.548;2022-10-16T21:22:14;19.10;99.90
24085;DHT22;12268;52.110;5.548;2022-10-16T21:24:39;19.10;99.90
24085;DHT22;12268;52.110;5.548;2022-10-16T21:27:05;19.10;99.90
24085;DHT22;12268;52.110;5.548;2022-10-16T21:29:31;19.10;99.90
24085;DHT22;12268;52.110;5.548;2022-10-16T21:31:57;19.10;99.90
24085;DHT22;12268;52.110;5.548;2022-10-16T21:34:22;19.00;99.90
24085;DHT22;12268;52.110;5.548;2022-10-16T21:36:48;19.00;99.90
24085;DHT22;12268;52.110;5.548;2022-10-16T21:39:14;19.10;99.90
24085;DHT22;12268;52.110;5.548;2022-10-16T21:41:41;19.10;99.90
24085;DHT22;12268;52.110;5.548;2022-10-16T21:44:07;19.20;99.90
24085;DHT22;12268;52.110;5.548;2022-10-16T21:46:33;19.00;99.90
24085;DHT22;12268;52.110;5.548;2022-10-16T21:49:00;18.90;99.90
24085;DHT22;12268;52.110;5.548;2022-10-16T21:51:27;19.10;99.90
24085;DHT22;12268;52.110;5.548;2022-10-16T21:53:53;19.30;99.90
24085;DHT22;12268;52.110;5.548;2022-10-16T21:56:18;19.20;99.90
24085;DHT22;12268;52.110;5.548;2022-10-16T21:58:44;19.20;99.90
24085;DHT22;12268;52.110;5.548;2022-10-16T22:01:14;19.20;99.90
24085;DHT22;12268;52.110;5.548;2022-10-16T22:03:39;19.40;99.90
24085;DHT22;12268;52.110;5.548;2022-10-16T22:06:05;19.30;99.90
24085;DHT22;12268;52.110;5.548;2022-10-16T22:08:31;19.30;99.90
24085;DHT22;12268;52.110;5.548;2022-10-16T22:13:42;18.90;99.90
24085;DHT22;12268;52.110;5.548;2022-10-16T22:16:07;18.80;99.90
24085;DHT22;12268;52.110;5.548;2022-10-16T22:18:34;18.70;99.90
24085;DHT22;12268;52.110;5.548;2022-10-16T22:20:59;18.70;99.90
24085;DHT22;12268;52.110;5.548;2022-10-16T22:23:25;18.70;99.90
24085;DHT22;12268;52.110;5.548;2022-10-16T22:25:50;18.60;99.90
24085;DHT22;12268;52.110;5.548;2022-10-16T22:28:16;18.60;99.90
24085;DHT22;12268;52.110;5.548;2022-10-16T22:30:44;18.60;99.90
24085;DHT22;12268;52.110;5.548;2022-10-16T22:33:10;18.60;99.90
24085;DHT22;12268;52.110;5.548;2022-10-16T22:35:36;18.50;99.90
24085;DHT22;12268;52.110;5.548;2022-10-16T22:38:02;18.60;99.90
24085;DHT22;12268;52.110;5.548;2022-10-16T22:40:27;18.30;99.90
24085;DHT22;12268;52.110;5.548;2022-10-16T22:42:53;18.50;99.90
24085;DHT22;12268;52.110;5.548;2022-10-16T22:45:18;18.60;99.90
24085;DHT22;12268;52.110;5.548;2022-10-16T22:47:44;18.70;99.90
24085;DHT22;12268;52.110;5.548;2022-10-16T22:50:09;18.70;99.90
24085;DHT22;12268;52.110;5.548;2022-10-16T22:52:34;18.70;99.90
24085;DHT22;12268;52.110;5.548;2022-10-16T22:55:01;18.70;99.90
24085;DHT22;12268;52.110;5.548;2022-10-16T22:57:28;18.70;99.90
24085;DHT22;12268;52.110;5.548;2022-10-16T22:59:54;18.70;99.90
24085;DHT22;12268;52.110;5.548;2022-10-16T23:02:19;18.70;99.90
24085;DHT22;12268;52.110;5.548;2022-10-16T23:04:45;18.70;99.90
24085;DHT22;12268;52.110;5.548;2022-10-16T23:07:10;18.80;99.90
24085;DHT22;12268;52.110;5.548;2022-10-16T23:09:35;18.80;99.90
24085;DHT22;12268;52.110;5.548;2022-10-16T23:12:01;18.80;99.90
24085;DHT22;12268;52.110;5.548;2022-10-16T23:14:26;18.80;99.90
24085;DHT22;12268;52.110;5.548;2022-10-16T23:16:52;18.90;99.90
24085;DHT22;12268;52.110;5.548;2022-10-16T23:19:17;18.90;99.90
24085;DHT22;12268;52.110;5.548;2022-10-16T23:21:43;18.90;99.90
24085;DHT22;12268;52.110;5.548;2022-10-16T23:24:08;18.90;99.90
24085;DHT22;12268;52.110;5.548;2022-10-16T23:26:34;18.90;99.90
24085;DHT22;12268;52.110;5.548;2022-10-16T23:29:00;18.90;99.90
24085;DHT22;12268;52.110;5.548;2022-10-16T23:31:25;19.10;99.90
24085;DHT22;12268;52.110;5.548;2022-10-16T23:33:51;19.10;99.90
24085;DHT22;12268;52.110;5.548;2022-10-16T23:36:17;19.10;99.90
24085;DHT22;12268;52.110;5.548;2022-10-16T23:38:43;19.10;99.90
24085;DHT22;12268;52.110;5.548;2022-10-16T23:41:09;18.90;99.90
24085;DHT22;12268;52.110;5.548;2022-10-16T23:43:34;18.90;99.90
24085;DHT22;12268;52.110;5.548;2022-10-16T23:46:00;18.90;99.90
24085;DHT22;12268;52.110;5.548;2022-10-16T23:48:25;18.70;99.90
24085;DHT22;12268;52.110;5.548;2022-10-16T23:50:51;18.60;99.90
24085;DHT22;12268;52.110;5.548;2022-10-16T23:53:17;18.70;99.90
24085;DHT22;12268;52.110;5.548;2022-10-16T23:55:42;18.70;99.90
24085;DHT22;12268;52.110;5.548;2022-10-16T23:58:08;18.70;99.90
